Time;durP1;ratioP1;P1;durP2;ratioP2;P2;SDS_P1;SDS_P2;PMS_P1;PMS_P2;Temp;Humidity;BMP_temperature;BMP_pressure;BME280_temperature;BME280_humidity;BME280_pressure;Samples;Min_cycle;Max_cycle;Signal;HPM_P1;HPM_P2
2024/02/05 00:00:30;;;;;;;66.40;27.02;;;;;;;0.93;100.00;97345.22;5061902;28;20032;-70
2024/02/05 00:02:56;;;;;;;37.88;26.00;;;;;;;0.88;100.00;97346.22;5069898;28;20082;-70
2024/02/05 00:05:22;;;;;;;47.00;26.00;;;;;;;1.02;100.00;97338.06;5064259;28;20116;-70
2024/02/05 00:07:47;;;;;;;66.72;25.50;;;;;;;1.00;100.00;97336.38;5066417;28;20044;-70
2024/02/05 00:10:13;;;;;;;37.00;23.98;;;;;;;0.94;100.00;97340.88;5066999;28;20021;-70
2024/02/05 00:12:38;;;;;;;39.67;24.23;;;;;;;0.94;100.00;97339.13;5062985;28;20029;-70
2024/02/05 00:15:05;;;;;;;47.33;24.10;;;;;;;0.98;100.00;97337.28;5065702;28;20032;-70
2024/02/05 00:17:31;;;;;;;36.40;22.33;;;;;;;0.92;100.00;97334.88;5064856;28;20032;-70
2024/02/05 00:19:56;;;;;;;47.90;24.67;;;;;;;0.87;100.00;97339.34;5064859;28;20039;-70
2024/02/05 00:22:22;;;;;;;126.05;24.88;;;;;;;0.90;100.00;97334.94;5065531;28;20561;-70
2024/02/05 00:24:47;;;;;;;77.97;24.02;;;;;;;0.83;100.00;97330.78;5064819;28;20509;-70
2024/02/05 00:27:13;;;;;;;70.70;30.85;;;;;;;0.82;100.00;97332.53;5062014;28;20048;-70
2024/02/05 00:29:38;;;;;;;80.80;40.80;;;;;;;0.78;100.00;97328.34;5064979;28;20025;-69
2024/02/05 00:32:04;;;;;;;47.60;29.85;;;;;;;0.75;100.00;97328.38;5063035;28;20490;-70
2024/02/05 00:34:30;;;;;;;39.83;25.85;;;;;;;0.78;100.00;97323.16;5072530;28;20424;-70
2024/02/05 00:36:55;;;;;;;55.70;22.25;;;;;;;0.75;100.00;97322.38;5069096;28;20155;-70
2024/02/05 00:39:21;;;;;;;33.38;24.15;;;;;;;0.76;100.00;97316.28;5065003;28;20033;-70
2024/02/05 00:41:46;;;;;;;78.13;26.85;;;;;;;0.69;100.00;97310.41;5068912;28;20170;-70
2024/02/05 00:44:11;;;;;;;47.80;24.58;;;;;;;0.72;100.00;97307.72;5064635;28;20106;-70
2024/02/05 00:46:37;;;;;;;32.83;23.27;;;;;;;0.66;100.00;97302.72;5068712;28;20040;-70
2024/02/05 00:49:04;;;;;;;32.50;23.25;;;;;;;0.66;100.00;97300.13;5060514;28;20071;-70
2024/02/05 00:51:30;;;;;;;36.70;23.35;;;;;;;0.72;100.00;97297.38;5066238;28;20029;-70
2024/02/05 00:53:57;;;;;;;32.72;21.17;;;;;;;0.68;100.00;97293.16;5060814;28;20025;-70
2024/02/05 00:56:23;;;;;;;52.55;30.20;;;;;;;0.69;100.00;97293.13;5069693;28;20485;-70
2024/02/05 00:58:49;;;;;;;49.85;23.88;;;;;;;0.69;100.00;97294.84;5069723;28;20041;-70
2024/02/05 01:01:14;;;;;;;56.00;23.65;;;;;;;0.64;100.00;97286.38;5067140;28;20031;-70
2024/02/05 01:03:40;;;;;;;83.38;30.80;;;;;;;0.61;100.00;97289.03;5070409;28;20021;-70
2024/02/05 01:06:06;;;;;;;62.78;23.65;;;;;;;0.61;100.00;97286.44;5069987;28;20039;-70
2024/02/05 01:08:32;;;;;;;35.20;22.92;;;;;;;0.64;100.00;97281.19;5056451;28;20461;-70
2024/02/05 01:10:57;;;;;;;46.75;22.42;;;;;;;0.63;100.00;97275.13;5061544;28;20059;-69
2024/02/05 01:13:22;;;;;;;47.15;22.27;;;;;;;0.79;100.00;97269.53;5069476;28;20032;-70
2024/02/05 01:15:48;;;;;;;32.25;22.17;;;;;;;0.64;100.00;97265.63;5068545;28;20037;-70
2024/02/05 01:18:14;;;;;;;33.40;21.98;;;;;;;0.68;100.00;97256.88;5061285;28;20521;-69
2024/02/05 01:20:39;;;;;;;33.67;20.63;;;;;;;0.67;100.00;97255.16;5066685;28;20111;-70
2024/02/05 01:23:05;;;;;;;25.83;20.58;;;;;;;0.67;100.00;97249.97;5064635;28;20493;-70
2024/02/05 01:25:30;;;;;;;38.60;20.33;;;;;;;0.52;100.00;97252.09;5063512;28;20021;-70
2024/02/05 01:27:56;;;;;;;39.25;20.08;;;;;;;0.61;100.00;97255.34;5063232;28;20029;-70
2024/02/05 01:30:21;;;;;;;32.60;19.42;;;;;;;0.62;100.00;97251.88;5062878;28;20024;-69
2024/02/05 01:32:46;;;;;;;31.13;19.30;;;;;;;0.56;100.00;97251.16;5064728;28;20056;-70
2024/02/05 01:35:12;;;;;;;55.40;20.40;;;;;;;0.60;100.00;97249.28;5068680;28;20032;-70
2024/02/05 01:37:38;;;;;;;67.72;20.92;;;;;;;0.49;100.00;97259.13;5061081;28;20104;-69
2024/02/05 01:40:10;;;;;;;63.80;29.02;;;;;;;0.49;100.00;97254.78;5061570;28;20114;-70
2024/02/05 01:42:44;;;;;;;46.38;22.40;;;;;;;0.39;100.00;97253.34;5064396;28;20045;-70
2024/02/05 01:45:09;;;;;;;31.27;18.85;;;;;;;0.39;100.00;97253.34;5069841;28;20071;-70
2024/02/05 01:47:37;;;;;;;51.58;18.90;;;;;;;0.37;100.00;97252.53;5062874;28;20123;-70
2024/02/05 01:50:06;;;;;;;45.05;16.58;;;;;;;0.32;100.00;97252.63;5064920;28;20036;-70
2024/02/05 01:52:36;;;;;;;29.27;19.17;;;;;;;0.33;100.00;97253.47;5068786;28;20028;-70
2024/02/05 01:55:05;;;;;;;51.72;18.73;;;;;;;0.36;100.00;97240.47;5066745;28;20029;-70
2024/02/05 01:57:31;;;;;;;37.60;16.40;;;;;;;0.37;100.00;97247.34;5064801;28;20036;-70
2024/02/05 01:59:57;;;;;;;63.20;17.67;;;;;;;0.31;100.00;97242.31;5065111;28;20016;-70
2024/02/05 02:02:24;;;;;;;61.05;15.40;;;;;;;0.20;100.00;97240.84;5065928;28;20042;-70
2024/02/05 02:04:49;;;;;;;20.58;15.88;;;;;;;0.10;100.00;97234.19;5059736;28;20041;-70
2024/02/05 02:07:16;;;;;;;28.90;16.50;;;;;;;0.06;100.00;97222.22;5069334;28;20028;-70
2024/02/05 02:09:41;;;;;;;28.33;16.65;;;;;;;0.23;100.00;97221.81;5064331;28;20393;-70
2024/02/05 02:12:07;;;;;;;35.83;18.15;;;;;;;0.31;100.00;97208.63;5066865;28;20083;-70
2024/02/05 02:14:33;;;;;;;139.05;20.75;;;;;;;0.35;100.00;97187.78;5061622;28;20016;-70
2024/02/05 02:16:58;;;;;;;102.00;15.52;;;;;;;0.17;100.00;97199.50;5058660;28;20035;-70
2024/02/05 02:19:26;;;;;;;27.17;15.13;;;;;;;0.12;100.00;97191.00;5062635;28;20542;-70
2024/02/05 02:22:04;;;;;;;83.65;14.50;;;;;;;0.14;100.00;97184.03;5066908;28;20048;-70
2024/02/05 02:24:31;;;;;;;80.22;13.20;;;;;;;0.08;100.00;97172.09;5064774;28;20151;-70
2024/02/05 02:26:56;;;;;;;101.95;15.13;;;;;;;0.06;100.00;97175.59;5071255;28;20071;-70
2024/02/05 02:29:22;;;;;;;19.63;14.63;;;;;;;-0.01;100.00;97165.41;5065710;28;20035;-70
2024/02/05 02:31:51;;;;;;;77.20;14.30;;;;;;;-0.09;100.00;97157.00;5060902;28;20050;-70
2024/02/05 02:34:24;;;;;;;32.60;12.55;;;;;;;-0.14;100.00;97158.84;5065537;28;20034;-70
2024/02/05 02:36:55;;;;;;;82.15;12.32;;;;;;;-0.20;100.00;97156.44;5069313;28;20090;-70
2024/02/05 02:39:28;;;;;;;52.15;11.55;;;;;;;-0.33;100.00;97159.34;5064054;28;20024;-70
2024/02/05 02:41:56;;;;;;;13.02;11.70;;;;;;;-0.25;100.00;97159.13;5072952;28;20087;-70
2024/02/05 02:44:24;;;;;;;23.65;12.80;;;;;;;-0.19;100.00;97156.41;5075059;28;20531;-70
2024/02/05 02:46:52;;;;;;;35.70;11.77;;;;;;;-0.29;100.00;97160.09;5064273;28;20051;-70
2024/02/05 02:49:17;;;;;;;43.38;13.98;;;;;;;-0.23;100.00;97161.69;5075465;28;20051;-70
2024/02/05 02:51:43;;;;;;;58.00;11.77;;;;;;;-0.31;100.00;97172.22;5059687;28;20453;-70
2024/02/05 02:54:08;;;;;;;30.90;13.93;;;;;;;-0.30;100.00;97161.00;5070937;28;20029;-70
2024/02/05 02:56:34;;;;;;;22.25;13.20;;;;;;;-0.26;100.00;97154.84;5075732;28;20638;-70
2024/02/05 02:59:00;;;;;;;34.25;14.38;;;;;;;-0.19;100.00;97152.94;5063218;28;20033;-70
2024/02/05 03:01:25;;;;;;;19.52;14.15;;;;;;;-0.23;100.00;97153.91;5064288;28;20036;-70
2024/02/05 03:03:51;;;;;;;23.95;14.57;;;;;;;-0.25;100.00;97147.94;5056876;28;20024;-70
2024/02/05 03:06:16;;;;;;;48.97;12.52;;;;;;;-0.26;100.00;97141.91;5075470;28;20028;-70
2024/02/05 03:08:42;;;;;;;62.47;13.55;;;;;;;-0.21;100.00;97129.72;5068999;28;20047;-70
2024/02/05 03:11:07;;;;;;;82.50;12.75;;;;;;;-0.19;100.00;97129.66;5061326;28;20044;-70
2024/02/05 03:13:32;;;;;;;27.92;11.80;;;;;;;-0.13;100.00;97126.06;5069369;28;20032;-70
2024/02/05 03:15:58;;;;;;;60.72;12.90;;;;;;;-0.19;100.00;97124.47;5057695;28;20025;-70
2024/02/05 03:18:24;;;;;;;43.42;11.75;;;;;;;-0.54;100.00;97129.66;5065683;28;20056;-70
2024/02/05 03:20:49;;;;;;;60.58;11.57;;;;;;;-0.67;100.00;97128.25;5078373;28;20036;-70
2024/02/05 03:23:14;;;;;;;49.58;11.68;;;;;;;-0.75;100.00;97131.06;5073194;28;20105;-70
2024/02/05 03:25:40;;;;;;;12.07;10.73;;;;;;;-0.75;100.00;97118.94;5066525;28;20025;-70
2024/02/05 03:28:07;;;;;;;39.00;12.00;;;;;;;-0.67;100.00;97120.50;5075917;28;20038;-70
2024/02/05 03:30:34;;;;;;;19.42;11.90;;;;;;;-0.69;100.00;97110.19;5065436;28;20032;-70
2024/02/05 03:33:01;;;;;;;26.17;11.80;;;;;;;-0.65;100.00;97116.16;5070675;28;20560;-70
2024/02/05 03:35:27;;;;;;;18.65;11.57;;;;;;;-0.70;100.00;97121.44;5068194;28;20032;-70
2024/02/05 03:37:53;;;;;;;30.10;12.27;;;;;;;-0.57;100.00;97114.22;5059109;28;20029;-70
2024/02/05 03:40:21;;;;;;;56.60;12.20;;;;;;;-0.51;100.00;97108.03;5065829;28;20021;-70
2024/02/05 03:42:47;;;;;;;58.65;11.20;;;;;;;-0.61;100.00;97105.69;5064845;28;20070;-70
2024/02/05 03:45:13;;;;;;;18.25;10.77;;;;;;;-0.64;100.00;97110.09;5068581;28;20024;-70
2024/02/05 03:47:41;;;;;;;14.38;10.50;;;;;;;-0.77;100.00;97115.56;5064608;28;20082;-70
2024/02/05 03:50:10;;;;;;;14.27;10.70;;;;;;;-0.68;100.00;97111.91;5072429;28;20028;-70
2024/02/05 03:52:37;;;;;;;47.35;11.57;;;;;;;-0.66;100.00;97115.28;5069784;28;20643;-70
2024/02/05 03:55:03;;;;;;;18.52;11.90;;;;;;;-0.67;100.00;97113.59;5068685;28;20112;-70
2024/02/05 03:57:29;;;;;;;12.93;11.63;;;;;;;-0.70;100.00;97108.50;5069149;28;20029;-70
2024/02/05 03:59:54;;;;;;;12.38;11.18;;;;;;;-0.61;100.00;97103.09;5055887;28;20630;-70
2024/02/05 04:02:21;;;;;;;35.15;11.70;;;;;;;-0.56;100.00;97094.34;5069020;28;20088;-70
2024/02/05 04:04:47;;;;;;;26.33;11.20;;;;;;;-0.61;100.00;97087.56;5064384;28;20032;-70
2024/02/05 04:07:12;;;;;;;59.60;12.02;;;;;;;-0.59;100.00;97072.84;5058180;28;20028;-70
2024/02/05 04:09:37;;;;;;;19.15;11.00;;;;;;;-0.53;100.00;97078.78;5057282;28;20037;-70
2024/02/05 04:12:03;;;;;;;16.23;10.88;;;;;;;-0.54;100.00;97077.09;5061092;28;20036;-70
2024/02/05 04:14:28;;;;;;;39.47;11.10;;;;;;;-0.47;100.00;97078.63;5061192;28;20531;-70
2024/02/05 04:16:53;;;;;;;16.25;10.75;;;;;;;-0.58;100.00;97076.31;5063942;28;20030;-70
2024/02/05 04:19:19;;;;;;;45.83;10.20;;;;;;;-0.71;100.00;97078.34;5061346;28;20097;-70
2024/02/05 04:21:44;;;;;;;27.77;11.02;;;;;;;-0.81;100.00;97076.88;5060765;28;20056;-69
2024/02/05 04:24:10;;;;;;;18.08;11.18;;;;;;;-0.85;100.00;97072.66;5074677;28;20031;-70
2024/02/05 04:26:35;;;;;;;45.28;11.80;;;;;;;-0.92;100.00;97072.81;5063533;28;20032;-70
2024/02/05 04:29:01;;;;;;;41.20;10.20;;;;;;;-0.95;100.00;97078.06;5070966;28;20082;-70
2024/02/05 04:31:26;;;;;;;22.52;10.93;;;;;;;-0.98;100.00;97078.16;5066253;28;20232;-70
2024/02/05 04:33:51;;;;;;;13.25;10.13;;;;;;;-1.02;100.00;97076.50;5070394;28;20048;-69
2024/02/05 04:36:17;;;;;;;38.85;10.45;;;;;;;-0.99;100.00;97075.59;5056642;28;20021;-69
2024/02/05 04:38:43;;;;;;;26.00;15.10;;;;;;;-1.10;100.00;97078.44;5068826;28;20048;-69
2024/02/05 04:41:11;;;;;;;20.65;10.60;;;;;;;-1.10;100.00;97084.47;5061152;28;20446;-69
2024/02/05 04:43:38;;;;;;;47.28;10.75;;;;;;;-1.08;100.00;97085.28;5068713;28;20059;-69
2024/02/05 04:46:07;;;;;;;67.55;15.88;;;;;;;-1.02;100.00;97084.25;5062648;28;20036;-70
2024/02/05 04:48:32;;;;;;;41.67;12.43;;;;;;;-1.05;100.00;97082.59;5074149;28;20029;-70
2024/02/05 04:50:59;;;;;;;28.58;11.20;;;;;;;-1.03;100.00;97074.81;5060264;28;20033;-69
2024/02/05 04:53:25;;;;;;;25.88;10.60;;;;;;;-0.95;100.00;97072.03;5058879;28;20401;-69
2024/02/05 04:55:50;;;;;;;34.33;10.68;;;;;;;-0.97;100.00;97071.22;5060836;28;20025;-69
2024/02/05 04:58:16;;;;;;;59.17;12.32;;;;;;;-0.90;100.00;97071.03;5068918;28;20021;-69
2024/02/05 05:00:41;;;;;;;28.05;9.90;;;;;;;-1.01;100.00;97071.31;5059204;28;20040;-69
2024/02/05 05:03:06;;;;;;;15.65;12.20;;;;;;;-1.09;100.00;97069.78;5067642;28;21058;-69
2024/02/05 05:05:32;;;;;;;54.13;11.18;;;;;;;-1.07;100.00;97068.88;5070149;28;20068;-69
2024/02/05 05:07:57;;;;;;;55.45;10.73;;;;;;;-1.09;100.00;97060.31;5061118;28;20033;-68
2024/02/05 05:10:23;;;;;;;15.70;12.20;;;;;;;-1.09;100.00;97068.06;5058577;28;20080;-69
2024/02/05 05:12:48;;;;;;;15.77;11.38;;;;;;;-1.06;100.00;97056.78;5054718;28;20021;-68
2024/02/05 05:15:17;;;;;;;113.13;12.25;;;;;;;-0.89;100.00;97052.06;5055013;28;20025;-68
2024/02/05 05:17:43;;;;;;;18.88;10.82;;;;;;;-1.03;100.00;97056.69;5067570;28;20016;-68
2024/02/05 05:20:10;;;;;;;37.95;9.75;;;;;;;-1.07;100.00;97052.50;5065580;28;20031;-67
2024/02/05 05:22:36;;;;;;;16.90;9.80;;;;;;;-1.04;100.00;97044.66;5066901;28;20032;-68
2024/02/05 05:25:01;;;;;;;65.53;9.95;;;;;;;-1.11;100.00;97053.47;5063818;28;20104;-68
2024/02/05 05:27:26;;;;;;;63.38;10.85;;;;;;;-1.23;100.00;97055.44;5066218;28;20504;-68
2024/02/05 05:29:52;;;;;;;33.28;8.50;;;;;;;-1.29;100.00;97050.41;5056517;28;20025;-68
2024/02/05 05:32:17;;;;;;;10.15;9.02;;;;;;;-1.24;100.00;97048.56;5065075;28;20073;-67
2024/02/05 05:34:42;;;;;;;19.10;11.63;;;;;;;-1.20;100.00;97047.63;5075108;28;20113;-68
2024/02/05 05:37:08;;;;;;;40.33;10.50;;;;;;;-1.16;100.00;97043.22;5064425;28;20090;-68
2024/02/05 05:39:34;;;;;;;44.90;8.63;;;;;;;-1.11;100.00;97037.94;5059222;28;20021;-68
2024/02/05 05:41:59;;;;;;;59.25;9.65;;;;;;;-1.12;100.00;97044.00;5054518;28;20509;-68
2024/02/05 05:44:24;;;;;;;40.08;9.90;;;;;;;-1.18;100.00;97034.66;5070001;28;20063;-68
2024/02/05 05:46:50;;;;;;;83.25;10.50;;;;;;;-1.23;100.00;97026.19;5075065;28;20452;-68
2024/02/05 05:49:15;;;;;;;70.72;10.15;;;;;;;-1.21;100.00;97020.09;5069263;28;20077;-68
2024/02/05 05:51:41;;;;;;;35.50;9.48;;;;;;;-1.21;100.00;97025.25;5064372;28;20063;-68
2024/02/05 05:54:06;;;;;;;68.25;10.60;;;;;;;-1.24;100.00;97029.66;5060556;28;20083;-67
2024/02/05 05:56:32;;;;;;;55.47;9.85;;;;;;;-1.22;100.00;97023.53;5062920;28;20486;-68
2024/02/05 05:58:57;;;;;;;47.08;10.73;;;;;;;-1.21;100.00;97014.94;5073726;28;20396;-68
2024/02/05 06:01:22;;;;;;;102.07;11.93;;;;;;;-1.25;100.00;97018.44;5069721;28;20158;-68
2024/02/05 06:03:48;;;;;;;38.00;10.52;;;;;;;-1.31;100.00;97014.28;5055239;28;20036;-68
2024/02/05 06:06:13;;;;;;;14.48;10.15;;;;;;;-1.23;100.00;97003.75;5056593;28;20033;-68
2024/02/05 06:08:39;;;;;;;35.63;9.73;;;;;;;-1.17;100.00;97006.22;5060799;28;20125;-68
2024/02/05 06:11:04;;;;;;;16.90;8.40;;;;;;;-1.20;100.00;96995.94;5072638;28;20081;-68
2024/02/05 06:13:31;;;;;;;108.60;11.57;;;;;;;-1.19;100.00;97007.13;5060150;28;20032;-68
2024/02/05 06:15:56;;;;;;;38.70;8.40;;;;;;;-1.17;100.00;97008.78;5069527;28;20099;-68
2024/02/05 06:18:22;;;;;;;19.08;7.97;;;;;;;-1.24;100.00;97016.72;5056609;28;20033;-68
2024/02/05 06:20:47;;;;;;;30.95;8.10;;;;;;;-1.27;100.00;97015.06;5069766;28;20036;-68
2024/02/05 06:23:12;;;;;;;31.42;8.82;;;;;;;-1.23;100.00;97023.59;5060987;28;20103;-68
2024/02/05 06:25:38;;;;;;;90.55;10.82;;;;;;;-1.28;100.00;97018.53;5061949;28;20028;-68
2024/02/05 06:28:04;;;;;;;13.80;9.18;;;;;;;-1.30;100.00;97025.47;5060651;28;20434;-68
2024/02/05 06:30:29;;;;;;;8.75;7.95;;;;;;;-1.31;100.00;97023.75;5056600;28;20024;-68
2024/02/05 06:32:54;;;;;;;41.20;7.93;;;;;;;-1.28;100.00;97031.44;5068946;28;20056;-68
2024/02/05 06:35:20;;;;;;;42.33;8.45;;;;;;;-1.35;100.00;97027.31;5066549;28;20081;-68
2024/02/05 06:37:45;;;;;;;88.55;10.52;;;;;;;-1.37;100.00;97026.50;5061413;28;20039;-68
2024/02/05 06:40:11;;;;;;;74.55;9.82;;;;;;;-1.46;100.00;97025.81;5066069;28;20024;-68
2024/02/05 06:42:36;;;;;;;46.47;10.65;;;;;;;-1.53;100.00;97023.44;5066425;28;20514;-69
2024/02/05 06:45:03;;;;;;;35.58;11.52;;;;;;;-1.56;100.00;97021.75;5056080;28;20059;-69
2024/02/05 06:47:29;;;;;;;56.97;10.63;;;;;;;-1.68;100.00;97024.59;5063285;28;20571;-69
2024/02/05 06:49:54;;;;;;;48.60;11.77;;;;;;;-1.80;100.00;97013.66;5057193;28;20037;-69
2024/02/05 06:52:20;;;;;;;38.28;10.02;;;;;;;-1.74;100.00;97017.84;5060813;28;20140;-69
2024/02/05 06:54:45;;;;;;;27.70;10.20;;;;;;;-1.65;100.00;97027.13;5056709;28;20397;-69
2024/02/05 06:57:10;;;;;;;23.90;10.90;;;;;;;-1.68;100.00;97028.03;5057619;28;20024;-70
2024/02/05 06:59:36;;;;;;;21.15;12.52;;;;;;;-1.67;100.00;97022.00;5068793;28;20044;-69
2024/02/05 07:02:01;;;;;;;16.20;13.27;;;;;;;-1.61;100.00;97023.59;5059827;28;20021;-69
2024/02/05 07:04:27;;;;;;;27.65;12.88;;;;;;;-1.60;100.00;97022.72;5061473;28;20036;-70
2024/02/05 07:06:52;;;;;;;12.95;11.65;;;;;;;-1.65;100.00;97014.22;5070739;28;20458;-69
2024/02/05 07:09:17;;;;;;;52.00;14.27;;;;;;;-1.59;100.00;97029.56;5059231;28;20045;-69
2024/02/05 07:11:43;;;;;;;53.15;18.30;;;;;;;-1.66;100.00;97028.00;5056146;28;20062;-69
2024/02/05 07:14:08;;;;;;;22.42;12.45;;;;;;;-1.67;100.00;97028.88;5057184;28;20021;-69
2024/02/05 07:16:33;;;;;;;19.90;12.40;;;;;;;-1.67;100.00;97032.31;5064485;28;20393;-69
2024/02/05 07:18:59;;;;;;;41.25;13.75;;;;;;;-1.71;100.00;97035.00;5071841;28;20122;-69
2024/02/05 07:21:24;;;;;;;24.65;10.90;;;;;;;-1.77;100.00;97042.00;5071905;28;20025;-70
2024/02/05 07:23:50;;;;;;;32.10;13.10;;;;;;;-1.74;100.00;97052.25;5063220;28;20041;-68
2024/02/05 07:26:15;;;;;;;31.85;17.40;;;;;;;-1.75;100.00;97047.16;5065224;28;20036;-69
2024/02/05 07:28:42;;;;;;;48.10;11.85;;;;;;;-1.74;100.00;97048.84;5065253;28;20060;-69
2024/02/05 07:31:08;;;;;;;36.72;11.48;;;;;;;-1.71;100.00;97053.06;5061922;28;20024;-69
2024/02/05 07:33:33;;;;;;;11.13;10.02;;;;;;;-1.70;100.00;97049.59;5066380;28;20121;-69
2024/02/05 07:35:59;;;;;;;30.98;11.48;;;;;;;-1.68;100.00;97051.28;5064999;28;20049;-69
2024/02/05 07:38:24;;;;;;;36.15;12.00;;;;;;;-1.73;100.00;97053.13;5060054;28;20027;-69
2024/02/05 07:40:49;;;;;;;40.95;12.43;;;;;;;-1.70;100.00;97044.44;5072701;28;20032;-69
2024/02/05 07:43:15;;;;;;;40.75;14.93;;;;;;;-1.54;100.00;97048.41;5060267;28;20082;-69
2024/02/05 07:45:41;;;;;;;21.02;17.05;;;;;;;-1.54;100.00;97056.16;5068588;28;20025;-70
2024/02/05 07:48:06;;;;;;;28.23;19.10;;;;;;;-1.62;100.00;97050.31;5061314;28;20488;-70
2024/02/05 07:50:32;;;;;;;33.95;17.83;;;;;;;-1.69;100.00;97053.88;5057178;28;20021;-69
2024/02/05 07:52:57;;;;;;;24.33;16.85;;;;;;;-1.63;100.00;97054.63;5073996;28;20498;-69
2024/02/05 07:55:22;;;;;;;44.85;16.05;;;;;;;-1.67;100.00;97057.28;5069763;28;20036;-69
2024/02/05 07:57:48;;;;;;;20.38;15.20;;;;;;;-1.61;100.00;97059.75;5063432;28;20536;-69
2024/02/05 08:00:14;;;;;;;39.00;16.50;;;;;;;-1.54;100.00;97055.31;5066574;28;20025;-69
2024/02/05 08:02:39;;;;;;;29.75;16.13;;;;;;;-1.56;100.00;97059.63;5068926;28;20024;-69
2024/02/05 08:05:05;;;;;;;28.35;17.77;;;;;;;-1.54;100.00;97063.06;5075003;28;20530;-69
2024/02/05 08:07:30;;;;;;;38.25;18.95;;;;;;;-1.57;100.00;97066.56;5058178;28;20025;-69
2024/02/05 08:09:55;;;;;;;35.90;17.40;;;;;;;-1.58;100.00;97070.03;5063707;28;20032;-69
2024/02/05 08:12:22;;;;;;;25.50;17.77;;;;;;;-1.55;100.00;97062.19;5075692;28;20025;-70
2024/02/05 08:14:47;;;;;;;25.58;18.48;;;;;;;-1.56;100.00;97063.09;5067611;28;20028;-69
2024/02/05 08:17:13;;;;;;;27.73;19.45;;;;;;;-1.53;100.00;97057.84;5062292;28;20679;-69
2024/02/05 08:19:38;;;;;;;23.48;16.90;;;;;;;-1.48;100.00;97055.16;5060311;28;20081;-69
2024/02/05 08:22:03;;;;;;;23.48;18.05;;;;;;;-1.44;100.00;97064.53;5062123;28;20025;-69
2024/02/05 08:24:29;;;;;;;25.70;17.45;;;;;;;-1.39;100.00;97056.69;5059253;28;20058;-69
2024/02/05 08:26:54;;;;;;;42.60;16.77;;;;;;;-1.47;100.00;97051.69;5061306;28;20478;-69
2024/02/05 08:29:22;;;;;;;27.25;18.13;;;;;;;-1.52;100.00;97054.38;5067293;28;20032;-69
2024/02/05 08:31:48;;;;;;;29.98;18.02;;;;;;;-1.47;100.00;97043.94;5060613;28;20043;-69
2024/02/05 08:34:13;;;;;;;40.30;17.48;;;;;;;-1.48;100.00;97048.25;5071054;28;20029;-69
2024/02/05 08:36:39;;;;;;;27.95;18.58;;;;;;;-1.56;100.00;97055.34;5063061;28;20021;-69
2024/02/05 08:39:07;;;;;;;39.35;19.33;;;;;;;-1.62;100.00;97052.91;5065028;28;20448;-69
2024/02/05 08:41:34;;;;;;;32.42;20.60;;;;;;;-1.53;100.00;97055.25;5056195;28;20067;-69
2024/02/05 08:44:00;;;;;;;35.85;20.67;;;;;;;-1.35;100.00;97050.56;5064619;28;20021;-70
2024/02/05 08:46:25;;;;;;;36.80;20.15;;;;;;;-1.43;100.00;97049.91;5060536;28;20353;-69
2024/02/05 08:48:51;;;;;;;29.65;18.92;;;;;;;-1.30;100.00;97044.41;5064048;28;20374;-69
2024/02/05 08:51:17;;;;;;;31.50;21.55;;;;;;;-1.29;100.00;97050.41;5060941;28;20092;-69
2024/02/05 08:53:42;;;;;;;30.45;22.13;;;;;;;-1.17;100.00;97051.88;5064458;28;20536;-69
2024/02/05 08:56:08;;;;;;;40.03;25.27;;;;;;;-1.13;100.00;97057.81;5067855;28;20042;-69
2024/02/05 08:58:33;;;;;;;30.75;21.05;;;;;;;-0.99;100.00;97057.50;5068638;28;20035;-69
2024/02/05 09:00:59;;;;;;;22.73;17.35;;;;;;;-0.90;100.00;97065.00;5068119;28;20033;-69
2024/02/05 09:03:24;;;;;;;25.55;16.67;;;;;;;-0.83;100.00;97076.06;5064491;28;20012;-69
2024/02/05 09:05:53;;;;;;;86.18;16.40;;;;;;;-0.72;100.00;97081.81;5068839;28;20033;-69
2024/02/05 09:08:18;;;;;;;36.72;13.18;;;;;;;-0.64;100.00;97082.47;5066855;28;20028;-69
2024/02/05 09:10:44;;;;;;;21.52;13.80;;;;;;;-0.49;100.00;97088.16;5061596;28;20082;-69
2024/02/05 09:13:10;;;;;;;22.02;12.30;;;;;;;-0.41;100.00;97083.63;5065563;28;20033;-69
2024/02/05 09:15:35;;;;;;;26.20;15.40;;;;;;;-0.19;100.00;97083.06;5062850;28;20477;-69
2024/02/05 09:18:01;;;;;;;26.33;17.77;;;;;;;-0.08;100.00;97091.38;5062014;28;20021;-69
2024/02/05 09:20:27;;;;;;;70.63;16.00;;;;;;;-0.08;100.00;97091.38;5067556;28;20028;-69
2024/02/05 09:22:53;;;;;;;50.30;15.65;;;;;;;-0.05;100.00;97106.84;5065039;28;20033;-69
2024/02/05 09:25:19;;;;;;;82.07;16.77;;;;;;;-0.06;100.00;97099.97;5061550;28;20035;-69
2024/02/05 09:27:45;;;;;;;16.25;14.55;;;;;;;-0.09;100.00;97096.59;5062250;28;20025;-69
2024/02/05 09:30:10;;;;;;;21.27;13.27;;;;;;;-0.08;100.00;97093.97;5067582;28;20033;-69
2024/02/05 09:32:36;;;;;;;54.90;15.77;;;;;;;-0.13;100.00;97098.41;5064551;28;20060;-69
2024/02/05 09:35:02;;;;;;;33.47;13.38;;;;;;;0.10;100.00;97107.28;5057324;28;20028;-69
2024/02/05 09:37:28;;;;;;;38.83;16.73;;;;;;;0.16;100.00;97106.28;5065052;28;20053;-69
2024/02/05 09:39:54;;;;;;;53.78;18.35;;;;;;;0.23;100.00;97102.63;5062681;28;20032;-69
2024/02/05 09:42:19;;;;;;;45.08;19.02;;;;;;;0.61;100.00;97111.03;5059477;28;20043;-69
2024/02/05 09:44:45;;;;;;;35.25;19.98;;;;;;;0.75;100.00;97113.19;5064881;28;20041;-70
2024/02/05 09:47:17;;;;;;;71.40;17.85;;;;;;;0.73;100.00;97125.34;5062302;28;20151;-69
2024/02/05 09:49:44;;;;;;;34.33;20.92;;;;;;;0.58;100.00;97142.22;5071828;28;20096;-69
2024/02/05 09:52:11;;;;;;;33.78;21.95;;;;;;;0.93;100.00;97140.34;5057921;28;20108;-69
2024/02/05 09:54:40;;;;;;;35.25;25.30;;;;;;;1.04;100.00;97150.38;5066302;28;20509;-69
2024/02/05 09:57:09;;;;;;;32.95;22.38;;;;;;;1.26;100.00;97160.09;5056418;28;20489;-69
2024/02/05 09:59:35;;;;;;;32.90;22.88;;;;;;;1.53;100.00;97160.09;5062745;28;20122;-70
2024/02/05 10:02:06;;;;;;;25.02;17.08;;;;;;;1.85;100.00;97176.34;5059634;28;20024;-69
2024/02/05 10:04:37;;;;;;;21.80;15.50;;;;;;;2.18;100.00;97178.69;5059522;28;20048;-70
2024/02/05 10:07:06;;;;;;;15.80;14.15;;;;;;;2.42;100.00;97181.34;5070249;28;20110;-70
2024/02/05 10:09:34;;;;;;;21.20;16.63;;;;;;;2.68;100.00;97192.53;5056470;28;20036;-70
2024/02/05 10:12:02;;;;;;;14.02;11.95;;;;;;;2.81;100.00;97201.59;5072257;28;20025;-69
2024/02/05 10:14:28;;;;;;;10.52;9.50;;;;;;;2.93;100.00;97195.09;5068080;28;20029;-70
2024/02/05 10:16:53;;;;;;;16.25;12.13;;;;;;;3.14;100.00;97193.41;5055536;28;20036;-69
2024/02/05 10:19:20;;;;;;;12.02;10.10;;;;;;;3.13;100.00;97183.91;5068535;28;20119;-70
2024/02/05 10:21:46;;;;;;;16.70;13.88;;;;;;;3.03;100.00;97176.50;5079764;28;20034;-70
2024/02/05 10:24:15;;;;;;;18.00;14.30;;;;;;;2.83;100.00;97172.91;5061284;28;20119;-69
2024/02/05 10:26:41;;;;;;;16.00;13.38;;;;;;;2.87;100.00;97161.47;5070770;28;20028;-70
2024/02/05 10:29:12;;;;;;;15.88;13.43;;;;;;;2.77;100.00;97163.59;5063977;28;20024;-69
2024/02/05 10:31:49;;;;;;;19.55;16.80;;;;;;;2.26;100.00;97165.44;5070562;28;20024;-69
2024/02/05 10:34:24;;;;;;;21.05;18.02;;;;;;;2.44;100.00;97174.31;5062523;28;20048;-69
2024/02/05 10:36:52;;;;;;;15.88;14.27;;;;;;;2.29;100.00;97180.94;5062328;28;20037;-70
2024/02/05 10:39:18;;;;;;;19.70;16.40;;;;;;;2.46;100.00;97182.91;5061286;28;20054;-69
2024/02/05 10:41:44;;;;;;;27.00;20.35;;;;;;;2.36;100.00;97178.97;5063677;28;20061;-70
2024/02/05 10:44:09;;;;;;;23.27;18.08;;;;;;;2.34;100.00;97170.38;5069152;28;20043;-69
2024/02/05 10:46:35;;;;;;;22.08;17.30;;;;;;;2.43;100.00;97183.03;5065232;28;20071;-69
2024/02/05 10:49:03;;;;;;;34.15;18.75;;;;;;;2.83;100.00;97178.97;5066739;28;20033;-69
2024/02/05 10:51:29;;;;;;;29.75;20.38;;;;;;;2.53;100.00;97180.94;5060701;28;20032;-69
2024/02/05 10:53:57;;;;;;;47.55;21.80;;;;;;;2.32;100.00;97170.41;5060111;28;20025;-69
2024/02/05 10:56:23;;;;;;;109.75;25.33;;;;;;;2.46;100.00;97172.53;5061796;28;20074;-69
2024/02/05 10:58:54;;;;;;;142.88;23.08;;;;;;;2.54;100.00;97180.03;5068090;28;20037;-69
2024/02/05 11:01:22;;;;;;;59.25;23.45;;;;;;;2.39;100.00;97174.47;5069550;28;20104;-70
2024/02/05 11:03:52;;;;;;;52.88;22.08;;;;;;;2.49;100.00;97168.97;5063084;28;20444;-69
2024/02/05 11:06:19;;;;;;;62.15;22.83;;;;;;;2.54;100.00;97169.66;5060217;28;20035;-70